Lake Isabella, California
Current Conditions -  °F | °C
As of 11:15 PM on Friday 28 Nov 2014 (Local Time) from KTSP Reporting Station
Clear Clear  
Wind Chill: 39°   Ceiling: Unl
Heat Index: 39°   Visibility: 10mi
Dew Point: 21°   Wind: 0mph
Humidity: 49%   Direction: NA
Pressure: 30"   Gusts: NA
Location:  35.61°N, 118.49°W
Report Text: KTSP 290715Z AUTO 00000KT 10SM CLR 04/M06 A3000 RMK AO2
Loading
Personal Weather Stations






























Interactive Weather Map New forecast layout! Learn more

10-Day Weather Forecast

Advertisements
Track Severe Weather on mobile